Time;durP1;ratioP1;P1;durP2;ratioP2;P2;SDS_P1;SDS_P2;PMS_P1;PMS_P2;Temp;Humidity;BMP_temperature;BMP_pressure;BME280_temperature;BME280_humidity;BME280_pressure;Samples;Min_cycle;Max_cycle;Signal;HPM_P1;HPM_P2
2022/05/08 00:01:08;;;;;;;2.00;1.83;;;13.20;99.90;;;;;;5071027;28;20486;-48
2022/05/08 00:03:35;;;;;;;2.43;1.80;;;13.20;99.90;;;;;;5070711;28;20476;-45
2022/05/08 00:06:10;;;;;;;2.40;2.07;;;13.10;99.90;;;;;;5071280;28;20906;-45
2022/05/08 00:08:39;;;;;;;2.93;2.10;;;13.00;99.90;;;;;;5071299;28;20455;-45
2022/05/08 00:11:06;;;;;;;2.60;2.20;;;13.10;99.90;;;;;;5132365;22;20483;-47
2022/05/08 00:13:35;;;;;;;2.60;1.97;;;13.00;99.90;;;;;;5090607;28;20439;-47
2022/05/08 00:16:02;;;;;;;2.60;2.10;;;13.00;99.90;;;;;;5091477;28;20439;-47
2022/05/08 00:18:29;;;;;;;2.20;1.93;;;13.00;99.90;;;;;;5091175;28;20435;-46
2022/05/08 00:20:56;;;;;;;2.50;1.97;;;13.00;99.90;;;;;;5094962;28;20455;-47
2022/05/08 00:23:23;;;;;;;2.80;2.47;;;13.00;99.90;;;;;;5094809;28;20864;-46
2022/05/08 00:25:51;;;;;;;3.40;2.07;;;13.00;99.90;;;;;;5095145;28;20993;-48
2022/05/08 00:28:18;;;;;;;2.30;2.10;;;13.00;99.90;;;;;;5095372;28;20467;-46
2022/05/08 00:30:45;;;;;;;2.83;2.60;;;13.10;99.90;;;;;;5094973;28;20960;-47
2022/05/08 00:33:12;;;;;;;2.33;2.10;;;13.00;99.90;;;;;;5094565;28;20475;-46
2022/05/08 00:35:39;;;;;;;2.30;1.83;;;13.00;99.90;;;;;;5094808;28;20493;-47
2022/05/08 00:38:06;;;;;;;2.60;2.03;;;13.00;99.90;;;;;;5095247;28;20478;-46
2022/05/08 00:40:35;;;;;;;3.80;2.20;;;13.00;99.90;;;;;;5094859;28;20466;-46
2022/05/08 00:43:32;;;;;;;3.50;1.87;;;13.10;99.90;;;;;;5094586;28;20443;-46
2022/05/08 00:46:00;;;;;;;3.00;2.27;;;13.10;99.90;;;;;;5088292;28;20459;-46
2022/05/08 00:48:27;;;;;;;3.30;1.73;;;13.10;99.90;;;;;;5094609;28;20471;-48
2022/05/08 00:50:55;;;;;;;1.60;1.50;;;13.00;99.90;;;;;;5094800;28;20510;-46
2022/05/08 00:53:23;;;;;;;2.83;1.67;;;13.00;99.90;;;;;;5094273;28;20475;-46
2022/05/08 00:55:50;;;;;;;1.77;1.63;;;13.00;99.90;;;;;;5094793;28;20508;-46
2022/05/08 00:58:17;;;;;;;2.10;1.90;;;13.00;99.90;;;;;;5094650;28;20481;-46
2022/05/08 01:00:46;;;;;;;2.47;2.00;;;13.00;99.90;;;;;;5094655;28;20431;-46
2022/05/08 01:03:14;;;;;;;2.67;2.13;;;13.00;99.90;;;;;;5094353;28;20805;-46
2022/05/08 01:05:42;;;;;;;2.80;1.97;;;12.90;99.90;;;;;;5094147;28;20439;-47
2022/05/08 01:08:10;;;;;;;3.40;2.67;;;12.90;99.90;;;;;;5094471;28;20479;-46
2022/05/08 01:10:38;;;;;;;3.10;1.93;;;12.90;99.90;;;;;;5094029;28;20446;-47
2022/05/08 01:13:05;;;;;;;3.23;2.10;;;12.90;99.90;;;;;;5094143;28;20802;-47
2022/05/08 01:15:41;;;;;;;4.03;2.97;;;12.90;99.90;;;;;;5094274;28;20471;-46
2022/05/08 01:18:11;;;;;;;3.03;2.40;;;13.00;99.90;;;;;;5093983;28;20431;-47
2022/05/08 01:20:39;;;;;;;2.37;2.17;;;13.00;99.90;;;;;;5094321;28;20439;-47
2022/05/08 01:23:08;;;;;;;2.73;2.20;;;13.10;99.90;;;;;;5094259;28;20467;-47
2022/05/08 01:25:37;;;;;;;3.30;2.20;;;13.00;99.90;;;;;;5094088;28;20489;-46
2022/05/08 01:28:05;;;;;;;2.13;1.93;;;13.00;99.90;;;;;;5093726;28;20524;-48
2022/05/08 01:30:32;;;;;;;2.20;1.57;;;13.00;99.90;;;;;;5093160;28;20445;-46
2022/05/08 01:33:00;;;;;;;4.43;2.50;;;13.00;99.90;;;;;;5094161;28;20462;-46
2022/05/08 01:35:28;;;;;;;2.83;2.10;;;13.00;99.90;;;;;;5094178;28;20444;-47
2022/05/08 01:37:55;;;;;;;3.20;2.60;;;13.00;99.90;;;;;;5093753;28;20445;-46
2022/05/08 01:40:24;;;;;;;2.47;2.27;;;12.90;99.90;;;;;;5093678;28;20439;-46
2022/05/08 01:42:51;;;;;;;2.57;2.23;;;12.80;99.90;;;;;;5093355;28;20886;-47
2022/05/08 01:45:18;;;;;;;2.70;2.33;;;12.80;99.90;;;;;;5094048;28;20455;-46
2022/05/08 01:50:29;;;;;;;2.90;2.07;;;12.80;99.90;;;;;;5093720;28;20493;-46
2022/05/08 01:52:56;;;;;;;2.30;1.70;;;12.70;99.90;;;;;;5093361;28;20436;-47
2022/05/08 01:55:25;;;;;;;2.00;1.77;;;12.70;99.90;;;;;;5093308;28;20795;-46
2022/05/08 01:57:53;;;;;;;3.47;2.00;;;12.80;99.90;;;;;;5093372;28;20485;-46
2022/05/08 02:00:20;;;;;;;2.27;2.07;;;12.90;99.90;;;;;;5093363;28;20940;-47
2022/05/08 02:02:49;;;;;;;3.03;2.00;;;12.90;99.90;;;;;;5092831;28;20893;-47
2022/05/08 02:05:16;;;;;;;3.13;2.50;;;12.90;99.90;;;;;;5093324;28;20440;-46
2022/05/08 02:07:45;;;;;;;3.87;1.97;;;13.00;99.90;;;;;;5092969;28;20479;-46
2022/05/08 02:10:12;;;;;;;3.40;2.30;;;13.00;99.90;;;;;;5093654;28;20444;-47
2022/05/08 02:12:40;;;;;;;2.77;1.83;;;13.00;99.90;;;;;;5092646;28;20544;-46
2022/05/08 02:15:09;;;;;;;2.40;2.20;;;13.10;99.90;;;;;;5093243;28;20471;-47
2022/05/08 02:17:36;;;;;;;3.40;1.90;;;13.10;99.90;;;;;;5092970;28;20502;-46
2022/05/08 02:20:06;;;;;;;2.80;2.50;;;13.10;99.90;;;;;;5092918;28;20491;-47
2022/05/08 02:22:33;;;;;;;2.13;1.70;;;13.10;99.90;;;;;;5092533;28;20463;-46
2022/05/08 02:25:01;;;;;;;2.93;2.60;;;13.20;99.90;;;;;;5093294;28;20443;-47
2022/05/08 02:27:35;;;;;;;4.00;2.70;;;13.20;99.90;;;;;;5093073;28;20471;-46
2022/05/08 02:30:05;;;;;;;4.77;2.70;;;13.20;99.90;;;;;;5092870;28;20468;-47
2022/05/08 02:32:32;;;;;;;4.40;2.90;;;13.10;99.90;;;;;;5092334;28;20964;-47
2022/05/08 02:34:59;;;;;;;5.10;3.80;;;13.10;99.90;;;;;;5092974;28;20465;-46
2022/05/08 02:37:26;;;;;;;3.17;2.20;;;13.10;99.90;;;;;;5092815;28;20437;-47
2022/05/08 02:39:53;;;;;;;3.30;2.43;;;13.10;99.90;;;;;;5092563;28;20947;-46
2022/05/08 02:42:20;;;;;;;3.07;2.30;;;13.10;99.90;;;;;;5091907;28;20487;-46
2022/05/08 02:44:47;;;;;;;2.67;2.20;;;13.10;99.90;;;;;;5092313;28;20475;-47
2022/05/08 02:47:16;;;;;;;8.10;3.97;;;13.00;99.90;;;;;;5092061;28;20475;-46
2022/05/08 02:49:43;;;;;;;3.00;2.37;;;12.90;99.90;;;;;;5092360;28;20479;-47
2022/05/08 02:52:10;;;;;;;3.83;2.17;;;12.90;99.90;;;;;;5092370;28;20499;-47
2022/05/08 02:54:36;;;;;;;2.17;1.73;;;12.90;99.90;;;;;;5092373;28;20486;-46
2022/05/08 02:59:48;;;;;;;3.70;2.10;;;13.00;99.90;;;;;;5092274;28;20571;-47
2022/05/08 03:02:17;;;;;;;2.43;2.23;;;13.00;99.90;;;;;;5092202;28;20494;-46
2022/05/08 03:04:45;;;;;;;2.57;2.03;;;13.10;99.90;;;;;;5092349;28;20604;-45
2022/05/08 03:07:12;;;;;;;2.00;1.70;;;13.10;99.90;;;;;;5092039;28;20518;-46
2022/05/08 03:09:39;;;;;;;1.80;1.67;;;13.10;99.90;;;;;;5092104;28;20436;-47
2022/05/08 03:12:07;;;;;;;1.77;1.40;;;13.20;99.90;;;;;;5092036;28;20471;-46
2022/05/08 03:14:34;;;;;;;2.87;1.80;;;13.10;99.90;;;;;;5091659;28;20492;-46
2022/05/08 03:17:01;;;;;;;2.60;1.80;;;13.10;99.90;;;;;;5092131;28;20475;-46
2022/05/08 03:19:29;;;;;;;1.70;1.60;;;13.10;99.90;;;;;;5091933;28;20435;-47
2022/05/08 03:21:56;;;;;;;2.40;1.93;;;13.00;99.90;;;;;;5091839;28;20527;-46
2022/05/08 03:24:23;;;;;;;2.60;1.50;;;13.10;99.90;;;;;;5091666;28;20897;-46
2022/05/08 03:26:50;;;;;;;2.27;1.77;;;13.10;99.90;;;;;;5092000;28;20435;-46
2022/05/08 03:29:17;;;;;;;2.10;1.77;;;13.00;99.90;;;;;;5091952;28;20501;-47
2022/05/08 03:31:44;;;;;;;2.87;1.97;;;13.00;99.90;;;;;;5091593;28;21033;-48
2022/05/08 03:34:11;;;;;;;2.80;1.97;;;13.00;99.90;;;;;;5091604;28;20471;-46
2022/05/08 03:36:39;;;;;;;2.80;1.70;;;12.90;99.90;;;;;;5091654;28;20475;-46
2022/05/08 03:39:06;;;;;;;3.90;2.20;;;12.90;99.90;;;;;;5091324;28;20432;-46
2022/05/08 03:41:33;;;;;;;3.20;2.47;;;12.90;99.90;;;;;;5091796;28;20513;-47
2022/05/08 03:44:00;;;;;;;2.23;1.83;;;12.90;99.90;;;;;;5091334;28;20859;-46
2022/05/08 03:46:27;;;;;;;3.30;2.13;;;12.90;99.90;;;;;;5091654;28;20482;-45
2022/05/08 03:48:55;;;;;;;3.20;2.10;;;12.90;99.90;;;;;;5090979;28;20518;-46
2022/05/08 03:51:22;;;;;;;2.80;2.10;;;12.90;99.90;;;;;;5091608;28;20463;-47
2022/05/08 03:53:50;;;;;;;1.60;1.43;;;12.90;99.90;;;;;;5092737;28;20861;-46
2022/05/08 03:56:17;;;;;;;2.97;1.80;;;12.90;99.90;;;;;;5098416;28;20496;-46
2022/05/08 03:58:44;;;;;;;2.00;1.60;;;12.90;99.90;;;;;;5098236;28;20463;-48
2022/05/08 04:01:11;;;;;;;2.13;1.70;;;12.90;99.90;;;;;;5098073;28;20469;-46
2022/05/08 04:03:38;;;;;;;2.10;1.70;;;12.80;99.90;;;;;;5097787;28;20470;-47
2022/05/08 04:06:05;;;;;;;2.20;1.60;;;12.80;99.90;;;;;;5098416;28;20471;-46
2022/05/08 04:08:32;;;;;;;2.53;1.80;;;12.70;99.90;;;;;;5098209;28;20922;-46
2022/05/08 04:11:01;;;;;;;2.73;1.80;;;12.70;99.90;;;;;;5098084;28;20483;-47
2022/05/08 04:13:28;;;;;;;3.17;2.30;;;12.70;99.90;;;;;;5097955;28;20454;-48
2022/05/08 04:18:40;;;;;;;2.60;1.57;;;12.70;99.90;;;;;;5098190;28;20801;-47
2022/05/08 04:21:07;;;;;;;1.40;1.30;;;12.80;99.90;;;;;;5097914;28;20595;-46
2022/05/08 04:26:19;;;;;;;2.23;1.50;;;12.80;99.90;;;;;;5098181;28;20516;-47
2022/05/08 04:28:46;;;;;;;2.00;1.50;;;12.70;99.90;;;;;;5097604;28;20903;-47
2022/05/08 04:31:13;;;;;;;3.30;2.27;;;12.70;99.90;;;;;;5097827;28;20975;-47
2022/05/08 04:33:40;;;;;;;2.93;1.90;;;12.70;99.90;;;;;;5097794;28;20471;-49
2022/05/08 04:36:07;;;;;;;2.47;1.67;;;12.70;99.90;;;;;;5098250;28;20435;-47
2022/05/08 04:38:34;;;;;;;2.50;2.13;;;12.70;99.90;;;;;;5097840;28;20557;-46
2022/05/08 04:41:00;;;;;;;2.40;1.87;;;12.70;99.90;;;;;;5097844;28;20491;-47
2022/05/08 04:43:29;;;;;;;2.73;1.97;;;12.70;99.90;;;;;;5097811;28;20469;-46
2022/05/08 04:45:56;;;;;;;3.30;2.60;;;12.70;99.90;;;;;;5097736;28;20439;-46
2022/05/08 04:48:23;;;;;;;4.10;3.17;;;12.60;99.90;;;;;;5097449;28;20498;-48
2022/05/08 04:50:49;;;;;;;4.97;3.13;;;12.60;99.90;;;;;;5098004;28;20463;-47
2022/05/08 04:53:16;;;;;;;3.10;1.93;;;12.50;99.90;;;;;;5097480;28;20500;-46
2022/05/08 04:55:43;;;;;;;2.40;2.20;;;12.50;99.90;;;;;;5098049;28;20471;-46
2022/05/08 04:58:10;;;;;;;2.00;1.70;;;12.60;99.90;;;;;;5097712;28;21001;-46
2022/05/08 05:00:39;;;;;;;2.57;2.37;;;12.60;99.90;;;;;;5097378;28;20999;-46
2022/05/08 05:03:06;;;;;;;2.30;2.07;;;12.70;99.90;;;;;;5097590;28;20487;-46
2022/05/08 05:05:34;;;;;;;1.93;1.73;;;12.70;99.90;;;;;;5095736;28;20815;-47
2022/05/08 05:08:01;;;;;;;2.07;1.80;;;12.70;99.90;;;;;;5094369;28;20471;-46
2022/05/08 05:10:28;;;;;;;2.10;1.80;;;12.80;99.90;;;;;;5094400;28;20474;-46
2022/05/08 05:12:55;;;;;;;2.20;2.00;;;12.90;99.90;;;;;;5094331;28;20451;-47
2022/05/08 05:15:24;;;;;;;2.73;2.50;;;12.90;99.90;;;;;;5094460;28;20482;-46
2022/05/08 05:17:52;;;;;;;2.97;2.73;;;13.00;99.90;;;;;;5094080;28;20442;-47
2022/05/08 05:20:19;;;;;;;2.67;2.23;;;12.90;99.90;;;;;;5094117;28;20443;-47
2022/05/08 05:22:46;;;;;;;3.23;2.73;;;12.90;99.90;;;;;;5093850;28;20826;-46
2022/05/08 05:25:13;;;;;;;3.07;2.87;;;12.90;99.90;;;;;;5094182;28;20443;-48
2022/05/08 05:27:40;;;;;;;2.20;1.90;;;12.90;99.90;;;;;;5093937;28;20436;-46
2022/05/08 05:30:09;;;;;;;2.10;1.63;;;13.00;99.90;;;;;;5093821;28;20471;-46
2022/05/08 05:32:36;;;;;;;3.93;2.03;;;12.90;99.90;;;;;;5093580;28;20467;-49
2022/05/08 05:35:05;;;;;;;2.47;1.90;;;12.90;99.90;;;;;;5093730;28;20447;-47
2022/05/08 05:37:31;;;;;;;3.37;2.40;;;12.90;99.90;;;;;;5094077;28;20435;-46
2022/05/08 05:39:58;;;;;;;3.90;2.83;;;12.90;99.90;;;;;;5093931;28;20496;-47
2022/05/08 05:42:25;;;;;;;2.87;2.40;;;12.90;99.90;;;;;;5093408;28;20487;-46
2022/05/08 05:44:52;;;;;;;2.40;2.20;;;12.80;99.90;;;;;;5093679;28;20475;-49
2022/05/08 05:50:06;;;;;;;1.87;1.67;;;13.00;99.90;;;;;;5093941;28;20415;-46
2022/05/08 05:52:35;;;;;;;2.57;1.80;;;13.10;99.90;;;;;;5093347;28;20454;-47
2022/05/08 05:55:04;;;;;;;2.20;2.00;;;13.10;99.90;;;;;;5093431;28;20850;-46
2022/05/08 05:57:31;;;;;;;2.80;2.43;;;13.00;99.90;;;;;;5093301;28;20485;-46
2022/05/08 05:59:58;;;;;;;2.10;1.90;;;13.10;99.90;;;;;;5093465;28;20435;-47
2022/05/08 06:02:25;;;;;;;2.33;2.13;;;13.10;99.90;;;;;;5093329;28;20484;-46
2022/05/08 06:04:52;;;;;;;2.50;2.20;;;13.10;99.90;;;;;;5093380;28;20504;-48
2022/05/08 06:07:20;;;;;;;3.23;2.07;;;13.10;99.90;;;;;;5093107;28;20927;-46
2022/05/08 06:09:47;;;;;;;2.00;1.80;;;13.10;99.90;;;;;;5093212;28;20483;-47
2022/05/08 06:12:14;;;;;;;2.80;2.50;;;13.00;99.90;;;;;;5142222;22;20538;-49
2022/05/08 06:14:42;;;;;;;2.47;1.93;;;13.00;99.90;;;;;;5072629;28;20449;-45
2022/05/08 06:17:09;;;;;;;2.10;1.90;;;13.00;99.90;;;;;;5072735;28;20967;-46
2022/05/08 06:19:37;;;;;;;2.30;1.80;;;13.00;99.90;;;;;;5072781;28;20440;-45
2022/05/08 06:22:04;;;;;;;2.37;2.17;;;13.10;99.90;;;;;;5072485;28;20510;-46
2022/05/08 06:24:33;;;;;;;3.47;1.80;;;13.10;99.90;;;;;;5072418;28;20440;-50
2022/05/08 06:27:00;;;;;;;2.17;1.97;;;13.10;99.90;;;;;;5072585;28;20975;-45
2022/05/08 06:29:27;;;;;;;2.37;2.20;;;13.10;99.90;;;;;;5072535;28;20513;-45
2022/05/08 06:31:54;;;;;;;2.30;1.80;;;13.20;99.90;;;;;;5072413;28;20464;-45
2022/05/08 06:34:21;;;;;;;1.93;1.73;;;13.20;99.90;;;;;;5072362;28;20966;-45
2022/05/08 06:36:48;;;;;;;1.90;1.70;;;13.20;99.90;;;;;;5072545;28;20507;-46
2022/05/08 06:39:15;;;;;;;2.50;2.17;;;13.30;99.90;;;;;;5072504;28;20469;-44
2022/05/08 06:41:43;;;;;;;3.13;2.07;;;13.30;99.90;;;;;;5072462;28;20512;-45
2022/05/08 06:44:10;;;;;;;1.77;1.53;;;13.30;99.90;;;;;;5071955;28;20476;-49
2022/05/08 06:46:37;;;;;;;1.77;1.60;;;13.40;99.90;;;;;;5072248;28;20444;-45
2022/05/08 06:49:05;;;;;;;2.07;1.70;;;13.50;99.90;;;;;;5072115;28;20881;-45
2022/05/08 06:51:32;;;;;;;2.20;2.00;;;13.40;99.90;;;;;;5072022;28;20835;-45
2022/05/08 06:53:59;;;;;;;2.83;2.63;;;13.40;99.90;;;;;;5071920;28;20471;-46
2022/05/08 06:56:26;;;;;;;2.73;2.27;;;13.50;99.90;;;;;;5072137;28;20471;-45
2022/05/08 07:01:40;;;;;;;2.67;2.37;;;13.60;99.90;;;;;;5071897;28;20453;-48
2022/05/08 07:04:09;;;;;;;2.30;2.10;;;13.60;99.90;;;;;;5072014;28;20483;-45
2022/05/08 07:06:36;;;;;;;2.80;1.83;;;13.50;99.90;;;;;;5072261;28;20976;-48
2022/05/08 07:09:04;;;;;;;2.07;1.87;;;13.50;99.90;;;;;;5071766;28;21092;-45
2022/05/08 07:11:31;;;;;;;3.90;3.60;;;13.50;99.90;;;;;;5071690;28;20506;-46
2022/05/08 07:14:00;;;;;;;3.20;2.70;;;13.50;99.90;;;;;;5071585;28;20937;-48
2022/05/08 07:16:27;;;;;;;2.73;2.20;;;13.50;99.90;;;;;;5072076;28;20440;-45
2022/05/08 07:18:54;;;;;;;2.30;2.10;;;13.50;99.90;;;;;;5071694;28;20468;-48
2022/05/08 07:21:22;;;;;;;1.83;1.60;;;13.50;99.90;;;;;;5071710;28;20496;-45
2022/05/08 07:23:49;;;;;;;2.23;1.47;;;13.50;99.90;;;;;;5071770;28;20812;-45
2022/05/08 07:26:17;;;;;;;2.73;2.53;;;13.50;99.90;;;;;;5071741;28;21165;-45
2022/05/08 07:28:44;;;;;;;3.30;2.23;;;13.50;99.90;;;;;;5070769;28;20471;-45
2022/05/08 07:31:12;;;;;;;2.53;2.33;;;13.60;99.90;;;;;;5071596;28;20475;-45
2022/05/08 07:33:40;;;;;;;2.70;2.50;;;13.60;99.90;;;;;;5071254;28;20493;-47
2022/05/08 07:36:13;;;;;;;2.07;1.80;;;13.50;99.90;;;;;;5071497;28;21063;-45
2022/05/08 07:38:41;;;;;;;4.27;1.80;;;13.40;99.90;;;;;;5071574;28;20501;-48
2022/05/08 07:41:08;;;;;;;3.87;3.47;;;13.50;99.90;;;;;;5071369;28;20447;-48
2022/05/08 07:43:35;;;;;;;3.47;3.17;;;13.60;99.90;;;;;;5071449;28;20506;-45
2022/05/08 07:46:02;;;;;;;2.23;2.03;;;13.60;99.90;;;;;;5071161;28;20480;-49
2022/05/08 07:48:30;;;;;;;2.57;2.30;;;13.60;99.90;;;;;;5071140;28;20504;-46
2022/05/08 07:51:00;;;;;;;3.20;1.90;;;13.60;99.90;;;;;;5071439;28;20476;-46
2022/05/08 07:53:27;;;;;;;1.83;1.60;;;13.50;99.90;;;;;;5071181;28;20522;-47
2022/05/08 07:55:54;;;;;;;1.80;1.67;;;13.40;99.90;;;;;;5071358;28;20963;-45
2022/05/08 07:58:22;;;;;;;3.10;1.63;;;13.40;99.90;;;;;;5071467;28;20448;-50
2022/05/08 08:00:53;;;;;;;1.50;1.30;;;13.40;99.90;;;;;;5071327;28;20513;-50
2022/05/08 08:03:20;;;;;;;1.90;1.80;;;13.50;99.90;;;;;;5071272;28;20979;-46
2022/05/08 08:05:49;;;;;;;1.57;1.47;;;13.60;99.90;;;;;;5071070;28;20501;-49
2022/05/08 08:08:17;;;;;;;1.63;1.40;;;13.60;99.90;;;;;;5071114;28;20444;-49
2022/05/08 08:10:45;;;;;;;2.70;1.60;;;13.60;99.90;;;;;;5071251;28;20527;-46
2022/05/08 08:13:12;;;;;;;1.40;1.10;;;13.60;99.90;;;;;;5070857;28;20507;-49
2022/05/08 08:15:39;;;;;;;1.40;1.10;;;13.60;99.90;;;;;;5071320;28;20476;-45
2022/05/08 08:18:07;;;;;;;1.77;1.10;;;13.60;99.90;;;;;;5070863;28;20804;-46
2022/05/08 08:20:34;;;;;;;1.43;1.00;;;13.60;99.90;;;;;;5071272;28;20436;-48
2022/05/08 08:23:03;;;;;;;2.77;2.10;;;13.70;99.90;;;;;;5070883;28;20992;-45
2022/05/08 08:25:30;;;;;;;1.93;1.77;;;13.80;99.90;;;;;;5071085;28;20452;-45
2022/05/08 08:27:57;;;;;;;2.17;1.57;;;13.80;99.90;;;;;;5071157;28;20464;-45
2022/05/08 08:30:24;;;;;;;1.70;1.37;;;13.80;99.90;;;;;;5071112;28;20476;-45
2022/05/08 08:32:51;;;;;;;1.50;1.40;;;13.70;99.90;;;;;;5070442;28;20515;-48
2022/05/08 08:35:18;;;;;;;2.03;1.40;;;13.80;99.90;;;;;;5070621;28;20816;-45
2022/05/08 08:37:45;;;;;;;2.03;1.60;;;13.70;99.90;;;;;;5070761;28;20437;-47
2022/05/08 08:40:14;;;;;;;3.10;2.73;;;13.80;99.90;;;;;;5071093;28;20437;-45
2022/05/08 08:42:42;;;;;;;2.77;2.50;;;13.90;99.90;;;;;;5074092;28;20496;-45
2022/05/08 08:47:57;;;;;;;2.97;2.67;;;13.80;99.90;;;;;;5075043;28;20939;-45
2022/05/08 08:50:26;;;;;;;2.53;2.33;;;13.80;99.90;;;;;;5074518;28;20486;-45
2022/05/08 08:52:54;;;;;;;2.00;1.47;;;13.70;99.90;;;;;;5074198;28;20490;-45
2022/05/08 08:55:23;;;;;;;4.10;2.50;;;13.70;99.90;;;;;;5074483;28;20482;-45
2022/05/08 08:57:50;;;;;;;3.00;1.70;;;13.70;99.90;;;;;;5074871;28;20514;-45
2022/05/08 09:00:19;;;;;;;2.63;1.90;;;13.80;99.90;;;;;;5074792;28;20501;-45
2022/05/08 09:02:47;;;;;;;2.73;2.07;;;14.00;99.90;;;;;;5074104;28;20514;-44
2022/05/08 09:05:14;;;;;;;1.90;1.70;;;14.10;99.90;;;;;;5074630;28;20444;-47
2022/05/08 09:07:46;;;;;;;2.20;1.80;;;14.20;99.90;;;;;;5074611;28;20478;-49
2022/05/08 09:10:15;;;;;;;1.83;1.63;;;14.20;99.90;;;;;;5074087;28;21086;-44
2022/05/08 09:13:00;;;;;;;2.83;2.27;;;14.20;99.90;;;;;;5073968;28;20502;-45
2022/05/08 09:15:29;;;;;;;2.57;2.37;;;14.30;99.90;;;;;;5074315;28;20474;-45
2022/05/08 09:17:57;;;;;;;2.00;1.80;;;14.40;99.90;;;;;;5074082;28;20976;-49
2022/05/08 09:20:30;;;;;;;2.20;2.00;;;14.50;99.90;;;;;;5074102;28;20475;-47
2022/05/08 09:23:01;;;;;;;3.33;2.77;;;14.60;99.90;;;;;;5073844;28;20460;-43
2022/05/08 09:25:52;;;;;;;2.47;2.27;;;14.50;99.90;;;;;;5073873;28;20479;-45
2022/05/08 09:28:21;;;;;;;3.37;2.43;;;14.50;99.90;;;;;;5074013;28;20871;-45
2022/05/08 09:30:59;;;;;;;3.13;2.83;;;14.60;99.90;;;;;;5073908;28;20563;-45
2022/05/08 09:33:27;;;;;;;3.43;2.97;;;14.50;99.90;;;;;;5073996;28;20447;-45
2022/05/08 09:35:55;;;;;;;3.30;3.00;;;14.60;99.90;;;;;;5073792;28;20970;-45
2022/05/08 09:38:22;;;;;;;4.37;3.13;;;14.60;99.90;;;;;;5074010;28;20494;-45
2022/05/08 09:41:05;;;;;;;3.70;3.37;;;14.60;99.90;;;;;;5073607;28;20479;-49
2022/05/08 09:43:35;;;;;;;3.47;3.10;;;14.60;99.90;;;;;;5073837;28;20447;-46
2022/05/08 09:46:03;;;;;;;3.87;3.47;;;14.80;99.90;;;;;;5073835;28;20941;-45
2022/05/08 09:48:31;;;;;;;3.33;3.03;;;14.80;99.90;;;;;;5073614;28;20440;-49
2022/05/08 09:50:59;;;;;;;3.97;3.47;;;14.90;99.90;;;;;;5073583;28;20939;-50
2022/05/08 09:53:28;;;;;;;4.00;3.60;;;15.00;99.90;;;;;;5072835;28;20490;-47
2022/05/08 09:55:57;;;;;;;3.07;2.70;;;15.00;99.90;;;;;;5073338;28;20448;-46
2022/05/08 09:58:24;;;;;;;4.27;3.87;;;15.10;99.90;;;;;;5073518;28;20444;-44
2022/05/08 10:00:54;;;;;;;4.90;3.83;;;15.10;99.90;;;;;;5073429;28;20432;-45
2022/05/08 10:03:21;;;;;;;3.50;3.20;;;15.20;99.90;;;;;;5073125;28;20461;-49
2022/05/08 10:05:49;;;;;;;4.07;3.07;;;15.30;99.90;;;;;;5073320;28;20486;-45
2022/05/08 10:08:19;;;;;;;3.47;3.10;;;15.50;99.90;;;;;;5073122;28;20862;-46
2022/05/08 10:14:07;;;;;;;2.60;2.13;;;15.70;99.90;;;;;;5072965;28;20431;-45
2022/05/08 10:17:06;;;;;;;2.40;2.03;;;15.90;99.90;;;;;;5073239;28;20440;-45
2022/05/08 10:19:54;;;;;;;3.10;2.60;;;15.80;99.90;;;;;;5073268;28;20437;-44
2022/05/08 10:22:21;;;;;;;2.90;2.43;;;15.80;99.90;;;;;;5072861;28;20457;-44
2022/05/08 10:24:53;;;;;;;3.30;1.77;;;15.80;99.90;;;;;;5072856;28;20953;-45
2022/05/08 10:27:23;;;;;;;5.13;2.50;;;15.70;99.90;;;;;;5073267;28;20440;-50
2022/05/08 10:30:26;;;;;;;2.33;2.13;;;15.70;99.90;;;;;;5072877;28;20651;-45
2022/05/08 10:32:55;;;;;;;2.20;2.00;;;15.80;99.90;;;;;;5072324;28;20492;-45
2022/05/08 10:35:23;;;;;;;2.83;1.83;;;15.70;99.90;;;;;;5072648;28;20855;-45
2022/05/08 10:37:51;;;;;;;1.40;1.23;;;15.80;99.90;;;;;;5072801;28;20448;-45
2022/05/08 10:40:35;;;;;;;3.17;2.30;;;15.90;99.90;;;;;;5072614;28;20432;-45
2022/05/08 10:43:25;;;;;;;2.60;1.87;;;15.90;99.90;;;;;;5072346;28;20460;-47
2022/05/08 10:45:53;;;;;;;2.73;1.80;;;15.90;99.90;;;;;;5072358;28;20518;-45
2022/05/08 10:48:25;;;;;;;2.87;2.43;;;15.90;99.90;;;;;;5072267;28;20478;-45
2022/05/08 10:50:54;;;;;;;3.00;2.17;;;16.00;99.90;;;;;;5072126;28;20884;-50
2022/05/08 10:53:25;;;;;;;10.30;2.53;;;16.00;99.90;;;;;;5072006;28;20472;-45
2022/05/08 10:55:54;;;;;;;7.27;2.17;;;16.00;99.90;;;;;;5072376;28;20440;-47
2022/05/08 10:58:20;;;;;;;22.60;3.50;;;16.10;99.90;;;;;;5072336;28;20473;-47
2022/05/08 11:00:47;;;;;;;2.00;1.80;;;16.20;99.90;;;;;;5072270;28;20468;-45
2022/05/08 11:03:22;;;;;;;2.60;2.23;;;16.40;99.90;;;;;;5071253;28;20493;-44
2022/05/08 11:05:49;;;;;;;2.80;2.27;;;16.40;99.90;;;;;;5071857;28;20929;-45
2022/05/08 11:08:23;;;;;;;2.20;2.00;;;16.50;99.90;;;;;;5072205;28;20448;-45
2022/05/08 11:10:58;;;;;;;3.93;2.50;;;16.50;99.90;;;;;;5071744;28;20512;-45
2022/05/08 11:13:26;;;;;;;2.70;2.37;;;16.50;99.90;;;;;;5071574;28;21015;-45
2022/05/08 11:15:53;;;;;;;2.27;2.07;;;16.50;99.90;;;;;;5071846;28;20448;-48
2022/05/08 11:18:24;;;;;;;2.53;2.17;;;16.30;99.90;;;;;;5071670;28;20824;-46
2022/05/08 11:20:55;;;;;;;1.77;1.60;;;16.40;99.90;;;;;;5071833;28;20513;-45
2022/05/08 11:23:23;;;;;;;2.23;1.93;;;16.50;99.90;;;;;;5071849;28;20722;-44
2022/05/08 11:25:51;;;;;;;2.20;1.77;;;16.70;99.90;;;;;;5072211;28;20448;-46
2022/05/08 11:28:21;;;;;;;5.83;2.20;;;16.80;99.90;;;;;;5072482;28;20471;-45
2022/05/08 11:30:50;;;;;;;1.60;1.50;;;16.90;99.90;;;;;;5071769;28;20581;-49
2022/05/08 11:36:06;;;;;;;2.03;1.83;;;17.00;99.90;;;;;;5071781;28;20423;-45
2022/05/08 11:38:45;;;;;;;2.30;2.10;;;17.10;99.90;;;;;;5071654;28;20906;-50
2022/05/08 11:41:14;;;;;;;2.97;2.23;;;17.10;99.90;;;;;;5071595;28;20489;-45
2022/05/08 11:43:43;;;;;;;2.20;2.00;;;17.20;99.90;;;;;;5071584;28;20472;-45
2022/05/08 11:46:15;;;;;;;1.47;1.33;;;17.30;99.90;;;;;;5071653;28;20432;-47
2022/05/08 11:48:42;;;;;;;2.00;1.80;;;17.30;99.90;;;;;;5071180;28;20452;-47
2022/05/08 11:51:11;;;;;;;4.10;2.23;;;17.20;99.90;;;;;;5071389;28;20480;-45
2022/05/08 11:53:43;;;;;;;2.10;1.60;;;17.30;99.90;;;;;;5071259;28;20436;-47
2022/05/08 11:56:24;;;;;;;6.60;2.00;;;17.30;99.90;;;;;;5071623;28;20433;-46
2022/05/08 11:58:52;;;;;;;1.60;1.50;;;17.30;99.90;;;;;;5071428;28;20451;-45
2022/05/08 12:01:23;;;;;;;2.47;1.73;;;17.10;99.90;;;;;;5071349;28;20517;-47
2022/05/08 12:03:50;;;;;;;1.80;1.50;;;17.20;99.90;;;;;;5071031;28;20565;-45
2022/05/08 12:06:19;;;;;;;1.70;1.60;;;17.40;99.90;;;;;;5071519;28;20436;-45
2022/05/08 12:08:46;;;;;;;2.10;1.90;;;17.50;99.90;;;;;;5071673;28;20872;-45
2022/05/08 12:11:30;;;;;;;2.20;1.60;;;17.50;99.90;;;;;;5071081;28;21072;-49
2022/05/08 12:14:01;;;;;;;1.70;1.40;;;17.60;99.90;;;;;;5146001;22;20522;-44
2022/05/08 12:16:28;;;;;;;1.93;1.67;;;17.70;99.90;;;;;;5094619;28;20482;-44
2022/05/08 12:19:15;;;;;;;3.67;1.80;;;17.60;99.90;;;;;;5095790;28;20875;-44
2022/05/08 12:21:45;;;;;;;2.90;2.70;;;17.50;99.90;;;;;;5095517;28;20435;-44
2022/05/08 12:24:13;;;;;;;2.27;2.07;;;17.50;99.90;;;;;;5095032;28;20491;-44
2022/05/08 12:26:40;;;;;;;2.27;1.87;;;17.50;99.90;;;;;;5095155;28;20444;-44
2022/05/08 12:29:08;;;;;;;3.67;2.50;;;17.40;99.90;;;;;;5095355;28;20807;-44
2022/05/08 12:31:36;;;;;;;2.43;1.90;;;17.20;99.90;;;;;;5095002;28;20844;-44
2022/05/08 12:34:05;;;;;;;2.50;2.30;;;17.20;99.90;;;;;;5095153;28;20470;-44
2022/05/08 12:36:33;;;;;;;2.50;2.30;;;17.10;99.90;;;;;;5095340;28;20614;-44
2022/05/08 12:39:02;;;;;;;3.13;2.83;;;17.10;99.90;;;;;;5094925;28;20928;-44
2022/05/08 12:41:30;;;;;;;4.43;2.77;;;17.00;99.90;;;;;;5095002;28;20482;-45
2022/05/08 12:43:57;;;;;;;24.63;4.33;;;17.00;99.90;;;;;;5094842;28;20497;-44
2022/05/08 12:46:24;;;;;;;2.77;2.57;;;17.00;99.90;;;;;;5095251;28;20482;-44
2022/05/08 12:48:50;;;;;;;1.90;1.67;;;16.70;99.90;;;;;;5094687;28;20472;-44
2022/05/08 12:51:17;;;;;;;5.60;2.20;;;16.80;99.90;;;;;;5094795;28;20566;-44
2022/05/08 12:53:44;;;;;;;2.90;2.07;;;16.80;99.90;;;;;;5094947;28;20505;-44
2022/05/08 12:56:13;;;;;;;2.60;2.10;;;16.90;99.90;;;;;;5094973;28;20500;-44
2022/05/08 13:01:24;;;;;;;3.70;2.40;;;16.90;99.90;;;;;;5094567;28;20687;-44
2022/05/08 13:03:51;;;;;;;2.47;2.27;;;16.90;99.90;;;;;;5094281;28;20483;-44
2022/05/08 13:06:18;;;;;;;3.00;2.50;;;17.00;99.90;;;;;;5094508;28;20474;-44
2022/05/08 13:08:45;;;;;;;2.43;2.00;;;17.00;99.90;;;;;;5094677;28;20554;-44
2022/05/08 13:11:13;;;;;;;2.33;2.13;;;17.00;99.90;;;;;;5094497;28;20516;-44
2022/05/08 13:13:41;;;;;;;2.47;2.27;;;17.00;99.90;;;;;;5094077;28;20987;-44
2022/05/08 13:16:11;;;;;;;4.00;3.13;;;17.00;99.90;;;;;;5094370;28;20477;-44
2022/05/08 13:18:38;;;;;;;3.70;3.27;;;17.00;99.90;;;;;;5094459;28;20447;-44
2022/05/08 13:21:05;;;;;;;2.40;2.00;;;17.10;99.90;;;;;;5094262;28;20475;-44